METAR AND TAF INFORMATION
METAR FOR LGKO
ADDS - METARS form results

(1809 UTC 21 July 2019)
Data provider http://aviationweather.gov/metar/data/
 
METAR text: LGKO 211750Z 34012KT CAVOK 29/16 Q1010
Conditions at: LGKO (KOS AIRPORT , GR) observed 1750 UTC 21 July 2019
Temperature: 29.0°C (84°F)
Dewpoint: 16.0°C (61°F) [RH = 45%]
Pressure (altimeter): 29.82 inches Hg (1010.0 mb)
Winds: from the NNW (340 degrees) at 14 MPH (12 knots; 6.2 m/s)
Visibility: 6 or more miles (10+ km)
Ceiling: ceiling and visibility are OK
Clouds: unknown
Weather: no significant weather observed at this time

METAR text: LGKO 211720Z 35012KT CAVOK 29/17 Q1010
Conditions at: LGKO (KOS AIRPORT , GR) observed 1720 UTC 21 July 2019
Temperature: 29.0°C (84°F)
Dewpoint: 17.0°C (63°F) [RH = 48%]
Pressure (altimeter): 29.82 inches Hg (1010.0 mb)
Winds: from the N (350 degrees) at 14 MPH (12 knots; 6.2 m/s)
Visibility: 6 or more miles (10+ km)
Ceiling: ceiling and visibility are OK
Clouds: unknown
Weather: no significant weather observed at this time

Forecast for: LGKO (KOS AIRPORT , GR)
Text: TAF LGKO 211700Z 2118/2218 34015KT 9999 FEW025
Forecast period: 1800 UTC 21 July 2019 to 1800 UTC 22 July 2019
Forecast type: FROM: standard forecast or significant change
Winds: from the NNW (340 degrees) at 17 MPH (15 knots; 7.7 m/s)
Visibility: 6 or more miles 10+ km)
Ceiling: at least 12,000 feet AGL
Clouds: few clouds at 2500 feet AGL
Weather: no significant weather forecast for this period
Text: TEMPO 2209/2218 34020G30KT
Forecast period: 0900 to 1800 UTC 22 July 2019
Forecast type: TEMPORARY: The following changes expected for less than half the time period
Winds: from the NNW (340 degrees) at 23 MPH (20 knots; 10.3 m/s)
gusting to 34 MPH (30 knots; 15.4 m/s)
Visibility: missing
Ceiling: unknown
Clouds: missing
Weather: no significant weather forecast for this period

 ΧΑΡΤΗΣ ΑΕΡΟΔΡΟΜΙΟΥ

 RUNWAY INFORMATION
Διάδρομος 14 Runway length 7841 ft Runway width 148 ft
Runway elevation 412 ft Runway displaced threshold 0 ft Runway heading 148
Διάδρομος 32 Runway length 7841 ft Runway width 148 ft
Runway elevation 373 ft Runway displaced threshold 0 ft Runway heading 328

 ΣΥΧΝΟΤΗΤΕΣ ΑΕΡΟΔΡΟΜΙΟΥ
Τύπος A/G Όνομα IPPOKRATIS Συχνότητα 563.7 MHZ
Τύπος APP Όνομα APP Συχνότητα 119.95 MHZ
Τύπος ATIS Όνομα ATIS Συχνότητα 126.95 MHZ
Τύπος TWR Όνομα IPPOKRATIS Συχνότητα 121.05 MHZ

 AIRPORT NEAR NAVIGATION AIDS
Τύπος VOR-DME Όνομα Kos Συχνότητα 109000 KHZ
Τύπος NDB Όνομα Kos Συχνότητα 311 KHZ



Hellenic Air Force Virtual - All rights reserved 2019 - Powered by VAM